createdAt,value
2018-05-16T00:01:17.033Z,13.40
2018-05-16T00:03:45.019Z,12.30
2018-05-16T00:06:11.612Z,12.73
2018-05-16T00:08:38.023Z,12.37
2018-05-16T00:11:05.704Z,12.63
2018-05-16T00:13:32.116Z,12.80
2018-05-16T00:16:00.901Z,12.70
2018-05-16T00:18:27.386Z,12.30
2018-05-16T00:20:55.334Z,12.77
2018-05-16T00:23:22.112Z,12.87
2018-05-16T00:25:48.510Z,12.30
2018-05-16T00:28:15.671Z,12.57
2018-05-16T00:30:42.065Z,14.53
2018-05-16T00:33:08.502Z,12.67
2018-05-16T00:35:35.396Z,14.27
2018-05-16T00:38:02.558Z,15.40
2018-05-16T00:40:30.080Z,14.80
2018-05-16T00:42:56.516Z,14.93
2018-05-16T00:45:22.960Z,15.70
2018-05-16T00:47:49.809Z,14.00
2018-05-16T00:50:16.265Z,13.87
2018-05-16T00:52:43.058Z,14.87
2018-05-16T00:55:10.189Z,14.77
2018-05-16T00:57:37.291Z,14.73
2018-05-16T01:00:04.212Z,12.93
2018-05-16T01:02:31.008Z,13.53
2018-05-16T01:04:57.485Z,14.07
2018-05-16T01:07:23.912Z,13.83
2018-05-16T01:09:50.323Z,14.50
2018-05-16T01:12:17.135Z,12.87
2018-05-16T01:14:43.661Z,14.67
2018-05-16T01:17:10.227Z,13.67
2018-05-16T01:19:49.914Z,14.23
2018-05-16T01:22:18.144Z,14.87
2018-05-16T01:24:44.614Z,14.73
2018-05-16T01:27:11.014Z,14.60
2018-05-16T01:29:37.516Z,15.57
2018-05-16T01:32:04.775Z,15.17
2018-05-16T01:34:31.526Z,14.80
2018-05-16T01:36:57.960Z,14.53
2018-05-16T01:39:25.172Z,14.00
2018-05-16T01:41:52.683Z,14.47
2018-05-16T01:44:19.506Z,13.97
2018-05-16T01:46:46.033Z,14.30
2018-05-16T01:49:19.536Z,14.50
2018-05-16T01:51:46.321Z,13.70
2018-05-16T01:54:12.919Z,13.70
2018-05-16T01:56:39.542Z,15.00
2018-05-16T01:59:06.114Z,14.97
2018-05-16T02:01:32.562Z,16.03
2018-05-16T02:03:59.233Z,15.60
2018-05-16T02:06:25.636Z,14.33
2018-05-16T02:08:53.192Z,14.73
2018-05-16T02:11:20.148Z,15.47
2018-05-16T02:13:46.699Z,14.60
2018-05-16T02:16:13.983Z,16.17
2018-05-16T02:18:40.459Z,14.97
2018-05-16T02:21:07.021Z,15.00
2018-05-16T02:23:34.184Z,13.70
2018-05-16T02:26:01.370Z,14.03
2018-05-16T02:28:27.887Z,13.87
2018-05-16T02:30:56.022Z,13.07
2018-05-16T02:33:24.338Z,13.83
2018-05-16T02:35:50.970Z,13.60
2018-05-16T02:38:17.522Z,13.50
2018-05-16T02:40:49.016Z,14.30
2018-05-16T02:43:15.694Z,14.00
2018-05-16T02:45:43.284Z,13.77
2018-05-16T02:48:09.946Z,14.53
2018-05-16T02:50:36.369Z,14.87
2018-05-16T02:53:02.830Z,14.77
2018-05-16T02:55:29.428Z,15.60
2018-05-16T02:57:56.565Z,17.20
2018-05-16T03:00:22.975Z,16.07
2018-05-16T03:02:49.795Z,15.30
2018-05-16T03:05:16.201Z,16.17
2018-05-16T03:07:43.334Z,17.83
2018-05-16T03:10:10.591Z,17.33
2018-05-16T03:12:37.005Z,17.43
2018-05-16T03:15:03.392Z,17.67
2018-05-16T03:17:29.818Z,18.50
2018-05-16T03:19:56.593Z,17.90
2018-05-16T03:22:23.762Z,17.57
2018-05-16T03:24:51.730Z,18.30
2018-05-16T03:27:18.296Z,18.07
2018-05-16T03:29:44.633Z,19.27
2018-05-16T03:32:12.909Z,15.77
2018-05-16T03:34:40.495Z,16.93
2018-05-16T03:37:06.884Z,16.23
2018-05-16T03:39:35.310Z,15.87
2018-05-16T03:42:03.485Z,17.13
2018-05-16T03:44:31.142Z,15.97
2018-05-16T03:46:57.682Z,17.60
2018-05-16T03:49:24.474Z,14.83
2018-05-16T03:51:52.539Z,14.27
2018-05-16T03:54:20.584Z,13.10
2018-05-16T03:56:48.685Z,14.43
2018-05-16T03:59:22.925Z,12.70
2018-05-16T04:02:02.299Z,13.50
2018-05-16T04:04:28.887Z,14.40
2018-05-16T04:06:55.448Z,13.30
2018-05-16T04:09:22.647Z,14.47
2018-05-16T04:11:50.124Z,13.80
2018-05-16T04:14:18.288Z,13.23
2018-05-16T04:16:45.623Z,14.70
2018-05-16T04:19:12.669Z,13.17
2018-05-16T04:21:40.616Z,13.20
2018-05-16T04:24:07.151Z,12.80
2018-05-16T04:26:33.785Z,13.20
2018-05-16T04:29:00.364Z,13.17
2018-05-16T04:31:27.339Z,13.70
2018-05-16T04:33:55.504Z,13.33
2018-05-16T04:36:21.901Z,13.57
2018-05-16T04:38:48.405Z,12.03
2018-05-16T04:41:16.541Z,12.47
2018-05-16T04:43:44.675Z,13.50
2018-05-16T04:46:11.862Z,11.23
2018-05-16T04:48:38.814Z,9.60
2018-05-16T04:51:05.653Z,10.83
2018-05-16T04:53:33.778Z,11.77
2018-05-16T04:56:01.765Z,10.87
2018-05-16T04:58:28.628Z,11.30
2018-05-16T05:00:55.103Z,11.27
2018-05-16T05:03:21.900Z,13.70
2018-05-16T05:05:48.547Z,11.13
2018-05-16T05:08:15.984Z,11.90
2018-05-16T05:10:42.542Z,10.90
2018-05-16T05:13:09.290Z,11.40
2018-05-16T05:15:36.423Z,12.53
2018-05-16T05:18:03.222Z,13.60
2018-05-16T05:20:30.261Z,12.27
2018-05-16T05:22:58.095Z,11.97
2018-05-16T05:25:25.070Z,11.97
2018-05-16T05:27:51.629Z,12.83
2018-05-16T05:30:18.556Z,11.57
2018-05-16T05:32:46.766Z,12.00
2018-05-16T05:35:13.808Z,11.93
2018-05-16T05:37:41.950Z,12.03
2018-05-16T05:40:10.060Z,11.60
2018-05-16T05:42:36.582Z,10.80
2018-05-16T05:45:03.843Z,11.00
2018-05-16T05:47:31.587Z,11.87
2018-05-16T05:49:58.677Z,12.00
2018-05-16T05:52:26.839Z,10.57
2018-05-16T05:54:53.523Z,10.80
2018-05-16T05:57:20.920Z,12.30
2018-05-16T05:59:47.997Z,10.70
2018-05-16T06:02:14.813Z,11.00
2018-05-16T06:04:42.771Z,10.40
2018-05-16T06:07:09.691Z,11.20
2018-05-16T06:09:37.977Z,11.00
2018-05-16T06:12:05.199Z,10.67
2018-05-16T06:14:31.965Z,10.23
2018-05-16T06:16:58.553Z,9.50
2018-05-16T06:19:25.789Z,9.50
2018-05-16T06:21:52.910Z,9.20
2018-05-16T06:24:20.105Z,9.80
2018-05-16T06:26:47.474Z,9.90
2018-05-16T06:29:13.874Z,9.47
2018-05-16T06:31:40.585Z,8.80
2018-05-16T06:34:07.150Z,8.50
2018-05-16T06:36:34.028Z,9.50
2018-05-16T06:39:00.660Z,9.63
2018-05-16T06:41:27.857Z,10.47
2018-05-16T06:43:54.623Z,10.03
2018-05-16T06:46:21.664Z,9.80
2018-05-16T06:48:48.182Z,9.67
2018-05-16T06:51:15.998Z,9.47
2018-05-16T06:53:45.129Z,9.10
2018-05-16T06:56:11.650Z,8.20
2018-05-16T06:58:38.958Z,7.90
2018-05-16T07:01:05.631Z,8.17
2018-05-16T07:03:32.423Z,7.53
2018-05-16T07:05:59.674Z,7.23
2018-05-16T07:08:26.946Z,8.10
2018-05-16T07:10:54.227Z,7.90
2018-05-16T07:13:20.748Z,7.57
2018-05-16T07:15:48.669Z,7.60
2018-05-16T07:18:15.215Z,7.97
2018-05-16T07:20:42.421Z,7.63
2018-05-16T07:23:08.835Z,7.13
2018-05-16T07:25:36.080Z,6.93
2018-05-16T07:28:02.951Z,7.37
2018-05-16T07:30:30.259Z,7.10
2018-05-16T07:32:57.844Z,7.53
2018-05-16T07:35:26.592Z,6.13
2018-05-16T07:37:53.483Z,6.43
2018-05-16T07:40:20.435Z,7.00
2018-05-16T07:42:47.646Z,5.30
2018-05-16T07:45:15.320Z,6.27
2018-05-16T07:50:16.273Z,5.93
2018-05-16T07:52:43.922Z,5.53
2018-05-16T07:55:10.542Z,6.10
2018-05-16T07:57:37.110Z,5.63
2018-05-16T08:00:05.170Z,6.47
2018-05-16T08:02:33.628Z,6.27
2018-05-16T08:05:01.712Z,6.13
2018-05-16T08:07:28.580Z,5.70
2018-05-16T08:09:55.518Z,5.40
2018-05-16T08:12:23.160Z,6.10
2018-05-16T08:14:49.958Z,6.03
2018-05-16T08:17:16.413Z,6.07
2018-05-16T08:19:44.104Z,5.20
2018-05-16T08:22:11.367Z,6.10
2018-05-16T08:24:38.192Z,5.90
2018-05-16T08:27:06.557Z,6.00
2018-05-16T08:29:33.762Z,6.00
2018-05-16T08:32:00.332Z,9.07
2018-05-16T08:34:27.733Z,6.30
2018-05-16T08:36:54.244Z,6.80
2018-05-16T08:39:21.469Z,6.70
2018-05-16T08:41:48.992Z,6.53
2018-05-16T08:44:16.200Z,5.37
2018-05-16T08:46:43.227Z,6.27
2018-05-16T08:49:10.162Z,5.30
2018-05-16T08:51:37.139Z,6.27
2018-05-16T08:54:04.597Z,5.40
2018-05-16T08:56:31.227Z,5.07
2018-05-16T08:58:59.599Z,5.60
2018-05-16T09:01:26.758Z,7.10
2018-05-16T09:03:55.298Z,7.00
2018-05-16T09:06:23.761Z,5.87
2018-05-16T09:08:52.271Z,5.30
2018-05-16T09:11:21.643Z,6.07
2018-05-16T09:13:48.919Z,5.10
2018-05-16T09:16:15.994Z,5.33
2018-05-16T09:18:44.831Z,4.87
2018-05-16T09:21:11.807Z,5.00
2018-05-16T09:23:39.227Z,6.20
2018-05-16T09:26:09.719Z,5.97
2018-05-16T09:28:38.600Z,5.40
2018-05-16T09:31:07.390Z,5.87
2018-05-16T09:33:34.098Z,5.80
2018-05-16T09:36:00.631Z,6.50
2018-05-16T09:38:28.064Z,6.20
2018-05-16T09:40:56.106Z,6.40
2018-05-16T09:43:23.912Z,6.50
2018-05-16T09:45:53.832Z,6.63
2018-05-16T09:48:23.001Z,6.07
2018-05-16T09:50:50.256Z,6.13
2018-05-16T09:53:17.622Z,6.00
2018-05-16T09:55:45.598Z,6.80
2018-05-16T09:58:13.557Z,7.10
2018-05-16T10:00:40.033Z,7.17
2018-05-16T10:03:06.917Z,7.60
2018-05-16T10:05:35.033Z,6.43
2018-05-16T10:08:03.182Z,6.83
2018-05-16T10:10:30.490Z,7.47
2018-05-16T10:12:57.948Z,7.00
2018-05-16T10:15:25.278Z,7.27
2018-05-16T10:17:53.251Z,6.87
2018-05-16T10:20:20.163Z,6.13
2018-05-16T10:22:48.277Z,6.60
2018-05-16T10:25:14.837Z,5.53
2018-05-16T10:27:41.387Z,6.23
2018-05-16T10:30:09.886Z,5.70
2018-05-16T10:32:38.266Z,6.83
2018-05-16T10:35:06.578Z,6.87
2018-05-16T10:37:33.159Z,6.80
2018-05-16T10:39:59.784Z,6.53
2018-05-16T10:42:26.676Z,7.60
2018-05-16T10:44:53.398Z,6.60
2018-05-16T10:47:20.322Z,7.03
2018-05-16T10:49:47.164Z,6.90
2018-05-16T10:52:14.311Z,7.07
2018-05-16T10:54:42.628Z,8.37
2018-05-16T10:57:09.309Z,7.60
2018-05-16T10:59:36.495Z,7.60
2018-05-16T11:02:04.204Z,8.77
2018-05-16T11:04:30.906Z,8.23
2018-05-16T11:06:58.898Z,8.73
2018-05-16T11:09:26.029Z,8.70
2018-05-16T11:11:52.687Z,10.07
2018-05-16T11:14:19.209Z,9.97
2018-05-16T11:16:50.345Z,11.00
2018-05-16T11:19:18.205Z,10.83
2018-05-16T11:21:46.597Z,10.87
2018-05-16T11:24:13.765Z,13.37
2018-05-16T11:26:41.034Z,11.63
2018-05-16T11:29:09.217Z,14.20
2018-05-16T11:31:35.886Z,12.50
2018-05-16T11:34:03.845Z,13.80
2018-05-16T11:36:32.196Z,14.37
2018-05-16T11:38:58.824Z,13.20
2018-05-16T11:41:26.273Z,13.90
2018-05-16T11:43:52.855Z,13.77
2018-05-16T11:46:19.365Z,14.50
2018-05-16T11:48:47.361Z,15.07
2018-05-16T11:51:15.640Z,12.23
2018-05-16T11:53:42.522Z,13.43
2018-05-16T11:56:09.477Z,14.00
2018-05-16T11:58:36.669Z,12.83
2018-05-16T12:01:03.663Z,12.00
2018-05-16T12:03:30.212Z,10.87
2018-05-16T12:05:58.200Z,11.20
2018-05-16T12:08:25.165Z,11.13
2018-05-16T12:10:52.529Z,10.80
2018-05-16T12:13:20.886Z,10.10
2018-05-16T12:15:48.642Z,9.70
2018-05-16T12:18:15.899Z,9.10
2018-05-16T12:20:42.481Z,10.37
2018-05-16T12:23:10.193Z,9.23
2018-05-16T12:25:37.926Z,9.37
2018-05-16T12:28:06.185Z,7.93
2018-05-16T12:30:34.459Z,7.80
2018-05-16T12:33:01.506Z,8.20
2018-05-16T12:35:28.514Z,7.73
2018-05-16T12:37:56.065Z,6.73
2018-05-16T12:40:22.697Z,6.77
2018-05-16T12:43:01.806Z,7.70
2018-05-16T12:45:28.500Z,6.90
2018-05-16T12:47:55.381Z,6.30
2018-05-16T12:50:22.735Z,5.47
2018-05-16T12:52:50.941Z,4.93
2018-05-16T12:55:19.179Z,5.87
2018-05-16T12:57:45.689Z,6.90
2018-05-16T13:00:13.256Z,5.43
2018-05-16T13:02:40.705Z,5.60
2018-05-16T13:05:09.067Z,5.30
2018-05-16T13:07:36.611Z,6.00
2018-05-16T13:10:04.433Z,5.23
2018-05-16T13:12:31.761Z,5.70
2018-05-16T13:15:00.981Z,6.00
2018-05-16T13:17:34.439Z,4.97
2018-05-16T13:20:03.007Z,5.50
2018-05-16T13:22:32.449Z,5.83
2018-05-16T13:25:09.075Z,5.70
2018-05-16T13:27:35.964Z,4.90
2018-05-16T13:30:05.591Z,5.80
2018-05-16T13:32:32.354Z,5.47
2018-05-16T13:34:59.605Z,5.40
2018-05-16T13:37:26.250Z,5.80
2018-05-16T13:39:54.513Z,5.97
2018-05-16T13:42:21.864Z,5.17
2018-05-16T13:44:48.961Z,4.97
2018-05-16T13:47:16.283Z,5.40
2018-05-16T13:49:44.383Z,4.70
2018-05-16T13:52:13.100Z,4.90
2018-05-16T13:54:41.328Z,5.30
2018-05-16T13:57:10.108Z,4.80
2018-05-16T13:59:37.181Z,4.97
2018-05-16T14:02:04.305Z,4.00
2018-05-16T14:04:31.782Z,4.43
2018-05-16T14:06:59.223Z,5.23
2018-05-16T14:09:25.887Z,4.47
2018-05-16T14:11:53.866Z,4.83
2018-05-16T14:14:21.296Z,5.13
2018-05-16T14:16:49.067Z,5.80
2018-05-16T14:19:16.367Z,6.53
2018-05-16T14:21:43.095Z,6.67
2018-05-16T14:24:11.524Z,5.40
2018-05-16T14:26:39.901Z,5.70
2018-05-16T14:29:06.659Z,5.10
2018-05-16T14:31:35.973Z,4.70
2018-05-16T14:34:04.401Z,5.57
2018-05-16T14:36:31.628Z,4.60
2018-05-16T14:39:36.730Z,4.37
2018-05-16T14:42:22.038Z,4.53
2018-05-16T14:47:55.759Z,4.77
2018-05-16T14:50:36.334Z,5.17
2018-05-16T14:53:06.635Z,4.80
2018-05-16T14:55:35.513Z,5.23
2018-05-16T14:58:04.138Z,5.07
2018-05-16T15:00:32.830Z,4.70
2018-05-16T15:03:01.611Z,5.27
2018-05-16T15:05:30.121Z,5.00
2018-05-16T15:07:57.555Z,4.40
2018-05-16T15:10:25.975Z,4.97
2018-05-16T15:12:54.287Z,4.47
2018-05-16T15:15:22.627Z,4.70
2018-05-16T15:17:50.167Z,5.30
2018-05-16T15:20:19.628Z,4.83
2018-05-16T15:22:48.790Z,4.27
2018-05-16T15:25:16.322Z,4.67
2018-05-16T15:27:45.463Z,4.90
2018-05-16T15:30:13.754Z,4.50
2018-05-16T15:32:41.152Z,4.93
2018-05-16T15:35:07.708Z,4.33
2018-05-16T15:37:34.792Z,5.00
2018-05-16T15:40:03.531Z,4.43
2018-05-16T15:42:31.759Z,4.20
2018-05-16T15:45:02.031Z,4.30
2018-05-16T15:47:30.467Z,4.20
2018-05-16T15:49:57.929Z,4.43
2018-05-16T15:52:26.249Z,4.50
2018-05-16T15:54:54.779Z,4.47
2018-05-16T15:57:21.416Z,4.40
2018-05-16T15:59:48.850Z,4.70
2018-05-16T16:02:16.008Z,5.07
2018-05-16T16:04:42.555Z,4.60
2018-05-16T16:07:09.520Z,5.93
2018-05-16T16:09:37.714Z,4.57
2018-05-16T16:12:05.974Z,5.10
2018-05-16T16:14:34.323Z,4.40
2018-05-16T16:17:01.068Z,4.70
2018-05-16T16:19:29.514Z,5.20
2018-05-16T16:21:58.912Z,6.07
2018-05-16T16:24:27.214Z,5.30
2018-05-16T16:26:55.310Z,5.50
2018-05-16T16:29:23.603Z,5.40
2018-05-16T16:31:50.173Z,5.97
2018-05-16T16:34:18.874Z,6.00
2018-05-16T16:36:46.657Z,7.10
2018-05-16T16:39:15.078Z,7.77
2018-05-16T16:41:47.797Z,9.60
2018-05-16T16:44:15.323Z,6.57
2018-05-16T16:46:43.521Z,6.10
2018-05-16T16:49:10.102Z,6.63
2018-05-16T16:51:37.702Z,7.00
2018-05-16T16:54:04.925Z,6.70
2018-05-16T16:56:31.408Z,7.10
2018-05-16T16:58:59.833Z,6.57
2018-05-16T17:01:28.221Z,6.57
2018-05-16T17:03:55.274Z,6.77
2018-05-16T17:06:21.849Z,6.20
2018-05-16T17:08:49.170Z,7.20
2018-05-16T17:11:16.053Z,6.13
2018-05-16T17:13:43.457Z,5.53
2018-05-16T17:16:19.766Z,6.90
2018-05-16T17:18:48.288Z,5.60
2018-05-16T17:21:16.710Z,5.80
2018-05-16T17:23:44.993Z,6.20
2018-05-16T17:26:11.495Z,5.37
2018-05-16T17:28:39.358Z,5.93
2018-05-16T17:31:07.711Z,5.53
2018-05-16T17:33:36.000Z,6.50
2018-05-16T17:36:04.243Z,5.37
2018-05-16T17:38:30.869Z,6.03
2018-05-16T17:40:58.079Z,6.77
2018-05-16T17:43:24.560Z,6.73
2018-05-16T17:45:51.422Z,7.40
2018-05-16T17:48:17.965Z,7.10
2018-05-16T17:50:45.333Z,7.70
2018-05-16T17:53:12.193Z,7.37
2018-05-16T17:55:38.767Z,9.07
2018-05-16T17:58:05.944Z,8.83
2018-05-16T18:00:32.371Z,6.10
2018-05-16T18:02:59.341Z,11.13
2018-05-16T18:05:26.706Z,6.10
2018-05-16T18:07:54.392Z,6.33
2018-05-16T18:10:21.240Z,6.83
2018-05-16T18:16:11.237Z,6.57
2018-05-16T18:18:37.796Z,5.67
2018-05-16T18:21:05.517Z,7.10
2018-05-16T18:23:33.349Z,5.60
2018-05-16T18:26:00.586Z,6.63
2018-05-16T18:28:28.781Z,6.70
2018-05-16T18:30:55.969Z,6.60
2018-05-16T18:33:23.676Z,6.63
2018-05-16T18:35:50.997Z,7.13
2018-05-16T18:38:18.080Z,6.67
2018-05-16T18:40:44.651Z,6.63
2018-05-16T18:43:12.638Z,7.17
2018-05-16T18:45:39.324Z,6.53
2018-05-16T18:48:07.637Z,6.43
2018-05-16T18:50:36.566Z,6.47
2018-05-16T18:53:03.317Z,6.60
2018-05-16T18:55:29.868Z,5.90
2018-05-16T18:57:57.333Z,6.70
2018-05-16T19:00:23.842Z,8.70
2018-05-16T19:02:52.217Z,7.23
2018-05-16T19:05:19.186Z,7.07
2018-05-16T19:07:47.713Z,7.10
2018-05-16T19:10:15.873Z,6.67
2018-05-16T19:12:42.999Z,6.33
2018-05-16T19:15:13.800Z,6.40
2018-05-16T19:17:41.372Z,6.00
2018-05-16T19:20:08.028Z,5.17
2018-05-16T19:22:36.797Z,6.20
2018-05-16T19:25:04.081Z,6.30
2018-05-16T19:27:36.489Z,7.03
2018-05-16T19:30:03.078Z,7.70
2018-05-16T19:32:30.459Z,7.40
2018-05-16T19:34:57.120Z,6.63
2018-05-16T19:37:26.314Z,6.90
2018-05-16T19:39:54.982Z,5.83
2018-05-16T19:42:22.819Z,6.20
2018-05-16T19:44:52.869Z,6.40
2018-05-16T19:47:19.695Z,6.70
2018-05-16T19:49:47.323Z,7.70
2018-05-16T19:52:14.421Z,7.63
2018-05-16T19:54:43.401Z,7.80
2018-05-16T19:57:10.043Z,7.30
2018-05-16T19:59:36.744Z,6.70
2018-05-16T20:02:03.477Z,6.33
2018-05-16T20:04:31.390Z,7.77
2018-05-16T20:06:58.931Z,8.37
2018-05-16T20:09:26.808Z,9.63
2018-05-16T20:11:54.154Z,10.87
2018-05-16T20:14:20.590Z,10.57
2018-05-16T20:16:47.052Z,9.43
2018-05-16T20:19:14.244Z,10.63
2018-05-16T20:21:42.940Z,10.70
2018-05-16T20:24:09.783Z,11.20
2018-05-16T20:26:36.828Z,8.67
2018-05-16T20:29:04.342Z,10.53
2018-05-16T20:31:30.958Z,10.40
2018-05-16T20:33:57.965Z,11.00
2018-05-16T20:36:24.540Z,13.00
2018-05-16T20:38:51.121Z,13.20
2018-05-16T20:41:19.219Z,13.53
2018-05-16T20:43:46.516Z,13.47
2018-05-16T20:46:13.699Z,14.50
2018-05-16T20:48:41.209Z,13.33
2018-05-16T20:51:07.732Z,15.87
2018-05-16T20:53:35.889Z,14.37
2018-05-16T20:56:05.531Z,13.70
2018-05-16T20:58:32.790Z,15.03
2018-05-16T21:00:59.787Z,13.87
2018-05-16T21:03:27.922Z,14.87
2018-05-16T21:05:57.128Z,14.00
2018-05-16T21:08:25.870Z,15.77
2018-05-16T21:10:56.950Z,14.20
2018-05-16T21:13:28.975Z,13.90
2018-05-16T21:15:58.818Z,15.03
2018-05-16T21:18:31.152Z,14.70
2018-05-16T21:20:58.865Z,13.53
2018-05-16T21:23:28.263Z,13.80
2018-05-16T21:25:56.154Z,13.80
2018-05-16T21:28:22.929Z,14.47
2018-05-16T21:30:52.522Z,13.93
2018-05-16T21:33:19.564Z,11.77
2018-05-16T21:35:46.138Z,11.87
2018-05-16T21:38:15.281Z,9.53
2018-05-16T21:40:41.897Z,9.80
2018-05-16T21:43:11.188Z,9.30
2018-05-16T21:45:40.865Z,7.37
2018-05-16T21:48:08.070Z,8.60
2018-05-16T21:50:36.905Z,8.10
2018-05-16T21:53:04.208Z,7.80
2018-05-16T21:55:32.174Z,7.20
2018-05-16T21:57:59.366Z,6.10
2018-05-16T22:00:27.097Z,5.90
2018-05-16T22:02:56.568Z,6.03
2018-05-16T22:05:23.361Z,7.00
2018-05-16T22:07:50.863Z,6.90
2018-05-16T22:10:17.297Z,6.30
2018-05-16T22:12:44.744Z,7.10
2018-05-16T22:15:11.257Z,7.30
2018-05-16T22:17:38.994Z,7.23
2018-05-16T22:20:06.232Z,7.90
2018-05-16T22:22:32.688Z,8.00
2018-05-16T22:24:59.965Z,6.40
2018-05-16T22:27:27.569Z,8.53
2018-05-16T22:29:55.620Z,7.90
2018-05-16T22:32:30.487Z,9.03
2018-05-16T22:35:02.929Z,8.37
2018-05-16T22:37:35.297Z,7.73
2018-05-16T22:40:08.179Z,9.20
2018-05-16T22:42:35.028Z,8.87
2018-05-16T22:45:17.834Z,9.80
2018-05-16T22:47:44.976Z,9.10
2018-05-16T22:50:13.085Z,9.67
2018-05-16T22:52:41.033Z,9.60
2018-05-16T22:55:08.464Z,9.10
2018-05-16T22:57:35.003Z,9.27
2018-05-16T23:00:01.847Z,9.43
2018-05-16T23:02:28.403Z,8.33
2018-05-16T23:04:54.816Z,9.33
2018-05-16T23:07:21.689Z,8.87
2018-05-16T23:09:48.542Z,8.87
2018-05-16T23:12:15.052Z,7.67
2018-05-16T23:14:42.362Z,7.80
2018-05-16T23:17:10.278Z,5.90
2018-05-16T23:19:36.717Z,7.23
2018-05-16T23:22:04.717Z,7.43
2018-05-16T23:24:31.189Z,7.60
2018-05-16T23:26:58.054Z,7.37
2018-05-16T23:29:25.292Z,7.67
2018-05-16T23:31:52.547Z,8.20
2018-05-16T23:34:18.934Z,6.20
2018-05-16T23:36:45.725Z,7.47
2018-05-16T23:39:12.522Z,5.73
2018-05-16T23:41:39.328Z,7.40
2018-05-16T23:44:06.180Z,6.37
2018-05-16T23:46:32.619Z,6.60
2018-05-16T23:48:59.159Z,6.77
2018-05-16T23:51:25.597Z,7.73
2018-05-16T23:53:53.031Z,6.47
2018-05-16T23:56:19.490Z,6.30
2018-05-16T23:58:45.898Z,6.00
